Greenbrier Valley Airport
KLWB : now visible

Airfield :











YOU CAN JOIN US ON...

 
LOGIN :

Register | Disclaimer

   EN    FR    IT 

 









Legend :    VFR   Marginal VFR   IFR   Intensive IFR   Very Intensive IFR
Visi :
Ceiling :
>= 8 km
>= 3000ft
5 to 8 km
1000 to 3000 ft
1500m to 5 km
500 to 1000 ft
800 to 1500m
200 to 500 ft
< 800m
< 200 ft
Symbols :   Thunderstorms  Fog  Heavy snow  Heavy precipitations  Wind > 20 kt






- Airport Elevation : 2302 ft


KLWB - Greenbrier Valley

CURRENT METAR :
  • 181135Z AUTO 14003KT 10SM OVC080 00/M10 A3034 RMK AO2 T00021104

EXPIRED METARs :
  • 181115Z AUTO 13003KT 10SM OVC090 00/M10 A3034 RMK AO2 T00011103
  • 181055Z AUTO 00000KT 10SM OVC090 00/M10 A3035 RMK AO2 T00011105
  • 181035Z AUTO 13004KT 10SM OVC090 00/M10 A3036 RMK AO2 T00001105
  • 181015Z AUTO 00000KT 10SM OVC090 00/M11 A3036 RMK AO2 T00011106
  • 180955Z AUTO 00000KT 10SM OVC090 00/M10 A3036 RMK AO2 T00011105
  • 180935Z AUTO 00000KT 10SM OVC090 00/M11 A3040 RMK AO2 T00011106
  • 180915Z AUTO 13003KT 10SM OVC100 00/M11 A3040 RMK AO2 T00021107
  • 180855Z AUTO 13003KT 10SM OVC100 00/M11 A3042 RMK AO2 T00021108

TAF KLWB
Valid from the 18 at 12:00 until the 19 at 12:00 UTC


181144Z 1812/1912 VRB03KT P6SM OVC080
FM181700 16007KT 4SM -RA SCT013 OVC028
FM182100 20009G19KT 3SM -RA BR SCT008 OVC018 WS020/20040KT
FM190000 22008G18KT P6SM OVC006
FM190800 27012G24KT P6SM BKN018



MET'MAP, your aeronautical weather chart ! - Copyright ORBIFLY December 2007 - Disclaimer

ORBIFLY MET'MAP TEAM :

Programming & Development : Alexandra Zaïnal
Concept & original design : Baudouin d'Aumeries
Assistance for programming : Marc-Olivier Méhu
Technical & hardware support : Manuel Goepfert

Contact : metmap@orbifly.com




SOURCES & CREDITS :

   NOAA       Earth
Advisory